Terminal Aerodrome Forecast
Issued by NWS Mobile, AL

Home | Current Version | Previous Version | Text Only | Print | Product List | Glossary On
Versions: 1 2 3 4 5 6 7 8 9 10 11 12 13 14 15 16 17 18 19 20 21 22 23 24 25 26 27
000
FTUS44 KMOB 251849 AAA
TAFPNS
TAF AMD
KPNS 251849Z 2519/2618 06004KT P6SM VCTS FEW030CB SCT250
      TEMPO 2519/2523 VRB25KT 2SM TSRA BKN025CB
     FM260300 00000KT P6SM FEW050 FEW250
     FM261200 01002KT 4SM BR FEW250
     FM261500 04004KT P6SM FEW250=

USA.gov is the U.S. government's official web portal to all federal, state and local government web resources and services.